Flight Track Log - Related Links

Times and Time Zones

All times are in EDT time to prevent confusion due to time zone crossing. See the DAL1475 flight status page for this flight to view local times or setup timezone preferences in your user account.

Time Position Orientation Groundspeed Altitude Reporting Facility
EDT Latitude Longitude Course Direction KTS MPH feet Rate Location/Type
Tue 06:24:20 PM 32.1714 -81.1550 287° West 229 264 3,100  Level Jacksonville Center
Tue 06:25:20 PM 32.2339 -81.1464 North 231 266 6,200 3,000 Climbing Jacksonville Center
Tue 06:26:00 PM 32.2463 -81.6520 287° West  Level FlightAware Approximate
Tue 06:26:20 PM 32.2411 -81.2297 276° West 208 239 9,100  Level Jacksonville Center
Tue 06:27:00 PM 32.2774 -81.7669 288° West  Level FlightAware Approximate
Tue 06:27:20 PM 32.2569 -81.3203 282° West 238 274 11,600  Level Jacksonville Center
Tue 06:28:00 PM 32.3080 -81.8820 287° West  Level FlightAware Approximate
Tue 06:28:20 PM 32.2792 -81.4306 283° West 315 362 14,600  Level Jacksonville Center
Tue 06:29:00 PM 32.3341 -81.9860 287° West  Level FlightAware Approximate
Tue 06:29:20 PM 32.2969 -81.5261 282° West 336 387 17,300  Level Jacksonville Center
Tue 06:30:20 PM 32.3211 -81.6414 284° West 336 387 20,000 1,593 Climbing Jacksonville Center
Tue 06:32:17 PM 32.3661 -81.8650 283° West 338 389 22,000 678 Climbing Atlanta Center
Tue 06:33:17 PM 32.3933 -81.9922 284° West 377 434 22,000  Level Atlanta Center
Tue 06:34:17 PM 32.4181 -82.1047 285° West 379 436 22,000  Level Atlanta Center
Tue 06:35:17 PM 32.4572 -82.2000 296° West 328 377 22,000  Level Atlanta Center
Tue 06:36:17 PM 32.5231 -82.2775 315° West 328 377 22,000  Level Atlanta Center
Tue 06:37:17 PM 32.5681 -82.3628 302° West 338 389 22,000  Level Atlanta Center
Tue 06:38:17 PM 32.6194 -82.4728 299° West 358 412 22,000  Level Atlanta Center
Tue 06:39:17 PM 32.6753 -82.5928 299° West 386 444 22,000  Level Atlanta Center
Tue 06:40:17 PM 32.7289 -82.7103 298° West 399 459 22,000  Level Atlanta Center
Tue 06:41:17 PM 32.7800 -82.8283 297° West 406 467 22,000  Level Atlanta Center
Tue 06:42:17 PM 32.8356 -82.9461 299° West 406 467 22,000  Level Atlanta Center
Tue 06:43:17 PM 32.8886 -83.0642 298° West 401 461 22,000  Level Atlanta Center
Tue 06:44:17 PM 32.9417 -83.1850 298° West 407 468 22,000  Level Atlanta Center
Tue 06:45:17 PM 33.0011 -83.3181 298° West 402 463 22,000  Level Atlanta Center
Tue 06:46:17 PM 33.0539 -83.4392 297° West 402 463 22,000 -400 Level Atlanta Center
Tue 06:47:17 PM 33.1003 -83.5428 298° West 402 463 21,200  Descending Atlanta Center
Tue 06:48:17 PM 33.1528 -83.6592 298° West 402 463 22,000 -3,556 Climbing Atlanta Center
Tue 06:48:38 PM 33.1833 -83.7167 302° West 399 459 16,400 -5,926 Descending Atlanta TRACON
Tue 06:49:38 PM 33.2333 -83.8333 297° West 382 440 14,000 -1,550 Descending Atlanta TRACON
Tue 06:50:38 PM 33.3000 -83.9167 314° West 372 428 13,300 -727 Descending Atlanta TRACON
Tue 06:51:17 PM 33.3267 -83.9717 300° West 373 429 12,800 -788 Descending Atlanta Center
Tue 06:52:17 PM 33.3850 -84.0636 307° West 356 410 12,000 -400 Descending Atlanta Center
Tue 06:53:17 PM 33.4372 -84.1458 307° West 320 368 12,000  Level Atlanta Center
Tue 06:53:38 PM 33.4500 -84.1667 306° West 235 270 12,000  Level Atlanta TRACON
Tue 06:54:38 PM 33.5000 -84.2333 312° West 230 265 12,000  Level Atlanta TRACON
Tue 06:55:38 PM 33.5333 -84.2833 309° West 227 261 12,000 -950 Level Atlanta TRACON
Tue 06:56:38 PM 33.5500 -84.3667 284° West 232 267 10,100 -2,200 Descending Atlanta TRACON
Tue 06:57:38 PM 33.5500 -84.4333 270° West 229 264 7,600 -2,050 Descending Atlanta TRACON
Tue 06:58:38 PM 33.5500 -84.5000 270° West 212 244 6,000 -1,800 Descending Atlanta TRACON
Tue 06:59:38 PM 33.5500 -84.5833 270° West 226 260 4,000 -1,450 Descending Atlanta TRACON
Tue 07:00:38 PM 33.5667 -84.6333 292° West 217 250 3,100 -500 Descending Atlanta TRACON
Tue 07:01:38 PM 33.6167 -84.5833 40° Northeast 193 222 3,000 -350 Descending Atlanta TRACON
Tue 07:02:38 PM 33.6167 -84.5333 90° East 181 208 2,400 -600 Descending Atlanta TRACON

Login

Don't have an account? Register now (free) for customized features, flight alerts, and more!